sensor_id;sensor_type;location;lat;lon;timestamp;P1;durP1;ratioP1;P2;durP2;ratioP2
62554;SDS011;48610;52.144;8.624;2023-08-07T00:01:20;20.75;;;5.68;;
62554;SDS011;48610;52.144;8.624;2023-08-07T00:04:21;17.40;;;5.30;;
62554;SDS011;48610;52.144;8.624;2023-08-07T00:07:21;12.30;;;5.93;;
62554;SDS011;48610;52.144;8.624;2023-08-07T00:10:24;15.75;;;5.55;;
62554;SDS011;48610;52.144;8.624;2023-08-07T00:13:24;11.68;;;5.45;;
62554;SDS011;48610;52.144;8.624;2023-08-07T00:16:25;12.23;;;5.70;;
62554;SDS011;48610;52.144;8.624;2023-08-07T00:19:25;16.55;;;5.40;;
62554;SDS011;48610;52.144;8.624;2023-08-07T00:22:26;17.00;;;6.35;;
62554;SDS011;48610;52.144;8.624;2023-08-07T00:25:27;19.95;;;5.68;;
62554;SDS011;48610;52.144;8.624;2023-08-07T00:28:27;10.73;;;5.70;;
62554;SDS011;48610;52.144;8.624;2023-08-07T00:31:29;12.52;;;6.32;;
62554;SDS011;48610;52.144;8.624;2023-08-07T00:34:31;24.73;;;6.10;;
62554;SDS011;48610;52.144;8.624;2023-08-07T00:37:32;10.80;;;5.40;;
62554;SDS011;48610;52.144;8.624;2023-08-07T00:40:39;15.32;;;5.57;;
62554;SDS011;48610;52.144;8.624;2023-08-07T00:43:40;13.48;;;5.57;;
62554;SDS011;48610;52.144;8.624;2023-08-07T00:46:41;15.20;;;5.75;;
62554;SDS011;48610;52.144;8.624;2023-08-07T00:49:42;16.67;;;5.60;;
62554;SDS011;48610;52.144;8.624;2023-08-07T00:52:43;14.73;;;5.75;;
62554;SDS011;48610;52.144;8.624;2023-08-07T00:55:44;19.73;;;5.50;;
62554;SDS011;48610;52.144;8.624;2023-08-07T00:58:46;11.80;;;5.90;;
62554;SDS011;48610;52.144;8.624;2023-08-07T01:01:46;18.55;;;6.32;;
62554;SDS011;48610;52.144;8.624;2023-08-07T01:04:47;26.25;;;6.68;;
62554;SDS011;48610;52.144;8.624;2023-08-07T01:07:49;15.93;;;6.38;;
62554;SDS011;48610;52.144;8.624;2023-08-07T01:11:01;15.18;;;6.35;;
62554;SDS011;48610;52.144;8.624;2023-08-07T01:14:36;22.98;;;7.18;;
62554;SDS011;48610;52.144;8.624;2023-08-07T01:18:07;17.48;;;6.13;;
62554;SDS011;48610;52.144;8.624;2023-08-07T01:21:16;16.80;;;6.70;;
62554;SDS011;48610;52.144;8.624;2023-08-07T01:24:17;16.58;;;6.47;;
62554;SDS011;48610;52.144;8.624;2023-08-07T01:33:43;23.20;;;7.15;;
62554;SDS011;48610;52.144;8.624;2023-08-07T01:36:51;29.17;;;6.80;;
62554;SDS011;48610;52.144;8.624;2023-08-07T01:39:54;27.23;;;7.05;;
62554;SDS011;48610;52.144;8.624;2023-08-07T01:42:56;15.63;;;6.70;;
62554;SDS011;48610;52.144;8.624;2023-08-07T01:45:58;18.98;;;6.82;;
62554;SDS011;48610;52.144;8.624;2023-08-07T01:48:59;17.20;;;6.10;;
62554;SDS011;48610;52.144;8.624;2023-08-07T01:52:00;19.92;;;7.00;;
62554;SDS011;48610;52.144;8.624;2023-08-07T01:55:00;25.92;;;6.57;;
62554;SDS011;48610;52.144;8.624;2023-08-07T01:58:01;27.77;;;6.32;;
62554;SDS011;48610;52.144;8.624;2023-08-07T02:01:02;11.75;;;6.53;;
62554;SDS011;48610;52.144;8.624;2023-08-07T02:04:03;18.88;;;6.15;;
62554;SDS011;48610;52.144;8.624;2023-08-07T02:07:04;14.68;;;6.40;;
62554;SDS011;48610;52.144;8.624;2023-08-07T02:10:04;14.00;;;6.18;;
62554;SDS011;48610;52.144;8.624;2023-08-07T02:13:05;19.05;;;6.68;;
62554;SDS011;48610;52.144;8.624;2023-08-07T02:16:06;12.65;;;5.93;;
62554;SDS011;48610;52.144;8.624;2023-08-07T02:19:06;19.15;;;6.07;;
62554;SDS011;48610;52.144;8.624;2023-08-07T02:22:07;12.70;;;5.82;;
62554;SDS011;48610;52.144;8.624;2023-08-07T02:25:07;19.20;;;7.03;;
62554;SDS011;48610;52.144;8.624;2023-08-07T02:28:08;12.20;;;6.03;;
62554;SDS011;48610;52.144;8.624;2023-08-07T02:31:09;13.88;;;6.63;;
62554;SDS011;48610;52.144;8.624;2023-08-07T02:34:09;15.55;;;6.57;;
62554;SDS011;48610;52.144;8.624;2023-08-07T02:37:10;20.85;;;6.90;;
62554;SDS011;48610;52.144;8.624;2023-08-07T02:40:10;19.63;;;7.32;;
62554;SDS011;48610;52.144;8.624;2023-08-07T02:43:15;17.08;;;6.70;;
62554;SDS011;48610;52.144;8.624;2023-08-07T02:46:15;11.52;;;6.88;;
62554;SDS011;48610;52.144;8.624;2023-08-07T02:49:16;16.77;;;7.43;;
62554;SDS011;48610;52.144;8.624;2023-08-07T02:52:16;21.00;;;6.50;;
62554;SDS011;48610;52.144;8.624;2023-08-07T02:55:17;18.55;;;7.35;;
62554;SDS011;48610;52.144;8.624;2023-08-07T02:58:18;14.98;;;7.10;;
62554;SDS011;48610;52.144;8.624;2023-08-07T03:01:19;22.98;;;7.75;;
62554;SDS011;48610;52.144;8.624;2023-08-07T03:04:19;19.83;;;7.10;;
62554;SDS011;48610;52.144;8.624;2023-08-07T03:07:20;15.13;;;7.45;;
62554;SDS011;48610;52.144;8.624;2023-08-07T03:10:20;16.67;;;7.22;;
62554;SDS011;48610;52.144;8.624;2023-08-07T03:13:21;20.33;;;8.85;;
62554;SDS011;48610;52.144;8.624;2023-08-07T03:16:23;17.52;;;7.88;;
62554;SDS011;48610;52.144;8.624;2023-08-07T03:19:23;19.73;;;7.07;;
62554;SDS011;48610;52.144;8.624;2023-08-07T03:22:24;14.95;;;7.28;;
62554;SDS011;48610;52.144;8.624;2023-08-07T03:25:24;12.85;;;7.40;;
62554;SDS011;48610;52.144;8.624;2023-08-07T03:28:25;19.35;;;8.57;;
62554;SDS011;48610;52.144;8.624;2023-08-07T03:31:26;19.33;;;8.55;;
62554;SDS011;48610;52.144;8.624;2023-08-07T03:34:26;15.88;;;8.07;;
62554;SDS011;48610;52.144;8.624;2023-08-07T03:37:27;18.02;;;8.32;;
62554;SDS011;48610;52.144;8.624;2023-08-07T03:40:27;29.00;;;8.32;;
62554;SDS011;48610;52.144;8.624;2023-08-07T03:43:28;17.95;;;9.07;;
62554;SDS011;48610;52.144;8.624;2023-08-07T03:46:28;16.25;;;8.80;;
62554;SDS011;48610;52.144;8.624;2023-08-07T03:49:29;22.08;;;9.60;;
62554;SDS011;48610;52.144;8.624;2023-08-07T03:52:29;21.30;;;10.52;;
62554;SDS011;48610;52.144;8.624;2023-08-07T03:55:30;27.08;;;9.98;;
62554;SDS011;48610;52.144;8.624;2023-08-07T03:58:31;26.20;;;10.25;;
62554;SDS011;48610;52.144;8.624;2023-08-07T04:01:31;17.20;;;9.00;;
62554;SDS011;48610;52.144;8.624;2023-08-07T04:04:32;22.38;;;9.23;;
62554;SDS011;48610;52.144;8.624;2023-08-07T04:07:33;22.77;;;8.90;;
62554;SDS011;48610;52.144;8.624;2023-08-07T04:10:33;23.75;;;9.07;;
62554;SDS011;48610;52.144;8.624;2023-08-07T04:13:34;16.17;;;8.75;;
62554;SDS011;48610;52.144;8.624;2023-08-07T04:16:34;27.55;;;8.20;;
62554;SDS011;48610;52.144;8.624;2023-08-07T04:19:37;17.63;;;7.97;;
62554;SDS011;48610;52.144;8.624;2023-08-07T04:22:37;28.35;;;8.65;;
62554;SDS011;48610;52.144;8.624;2023-08-07T04:25:38;21.75;;;8.57;;
62554;SDS011;48610;52.144;8.624;2023-08-07T04:28:38;21.90;;;8.75;;
62554;SDS011;48610;52.144;8.624;2023-08-07T04:31:39;20.05;;;8.43;;
62554;SDS011;48610;52.144;8.624;2023-08-07T04:34:39;23.88;;;8.57;;
62554;SDS011;48610;52.144;8.624;2023-08-07T04:37:40;14.45;;;7.47;;
62554;SDS011;48610;52.144;8.624;2023-08-07T04:40:44;19.17;;;8.27;;
62554;SDS011;48610;52.144;8.624;2023-08-07T04:43:49;17.60;;;8.00;;
62554;SDS011;48610;52.144;8.624;2023-08-07T04:46:49;15.35;;;7.35;;
62554;SDS011;48610;52.144;8.624;2023-08-07T04:49:50;15.88;;;7.38;;
62554;SDS011;48610;52.144;8.624;2023-08-07T04:52:51;15.52;;;6.90;;
62554;SDS011;48610;52.144;8.624;2023-08-07T04:55:51;15.13;;;8.10;;
62554;SDS011;48610;52.144;8.624;2023-08-07T04:58:52;14.02;;;7.30;;
62554;SDS011;48610;52.144;8.624;2023-08-07T05:01:53;20.10;;;7.50;;
62554;SDS011;48610;52.144;8.624;2023-08-07T05:04:53;20.80;;;7.82;;
62554;SDS011;48610;52.144;8.624;2023-08-07T05:07:54;15.23;;;7.03;;
62554;SDS011;48610;52.144;8.624;2023-08-07T05:10:55;11.48;;;6.80;;
62554;SDS011;48610;52.144;8.624;2023-08-07T05:13:56;15.10;;;6.38;;
62554;SDS011;48610;52.144;8.624;2023-08-07T05:16:56;20.67;;;7.32;;
62554;SDS011;48610;52.144;8.624;2023-08-07T05:19:57;23.27;;;6.85;;
62554;SDS011;48610;52.144;8.624;2023-08-07T05:22:57;15.32;;;7.70;;
62554;SDS011;48610;52.144;8.624;2023-08-07T05:25:58;11.73;;;7.40;;
62554;SDS011;48610;52.144;8.624;2023-08-07T05:28:59;19.55;;;7.15;;
62554;SDS011;48610;52.144;8.624;2023-08-07T05:31:59;13.13;;;7.38;;
62554;SDS011;48610;52.144;8.624;2023-08-07T05:35:00;11.02;;;6.22;;
62554;SDS011;48610;52.144;8.624;2023-08-07T05:38:00;14.35;;;6.55;;
62554;SDS011;48610;52.144;8.624;2023-08-07T05:41:01;11.68;;;5.95;;
62554;SDS011;48610;52.144;8.624;2023-08-07T05:44:02;26.70;;;6.68;;
62554;SDS011;48610;52.144;8.624;2023-08-07T05:47:02;15.13;;;5.80;;
62554;SDS011;48610;52.144;8.624;2023-08-07T05:50:03;10.98;;;6.35;;
62554;SDS011;48610;52.144;8.624;2023-08-07T05:53:04;19.63;;;6.20;;
62554;SDS011;48610;52.144;8.624;2023-08-07T05:56:05;17.55;;;6.43;;
62554;SDS011;48610;52.144;8.624;2023-08-07T05:59:05;13.27;;;6.10;;
62554;SDS011;48610;52.144;8.624;2023-08-07T06:02:07;14.40;;;6.10;;
62554;SDS011;48610;52.144;8.624;2023-08-07T06:05:11;21.00;;;6.32;;
62554;SDS011;48610;52.144;8.624;2023-08-07T06:08:14;13.98;;;5.78;;
62554;SDS011;48610;52.144;8.624;2023-08-07T06:11:15;29.10;;;6.88;;
62554;SDS011;48610;52.144;8.624;2023-08-07T06:14:15;11.15;;;5.55;;
62554;SDS011;48610;52.144;8.624;2023-08-07T06:17:16;17.38;;;5.65;;
62554;SDS011;48610;52.144;8.624;2023-08-07T06:20:16;13.82;;;5.95;;
62554;SDS011;48610;52.144;8.624;2023-08-07T06:23:17;13.20;;;6.07;;
62554;SDS011;48610;52.144;8.624;2023-08-07T06:26:17;24.77;;;5.97;;
62554;SDS011;48610;52.144;8.624;2023-08-07T06:29:18;15.02;;;5.30;;
62554;SDS011;48610;52.144;8.624;2023-08-07T06:32:19;17.73;;;5.22;;
62554;SDS011;48610;52.144;8.624;2023-08-07T06:35:19;17.30;;;5.10;;
62554;SDS011;48610;52.144;8.624;2023-08-07T06:38:20;15.07;;;4.97;;
62554;SDS011;48610;52.144;8.624;2023-08-07T06:41:21;12.77;;;4.60;;
62554;SDS011;48610;52.144;8.624;2023-08-07T06:44:21;16.88;;;5.10;;
62554;SDS011;48610;52.144;8.624;2023-08-07T06:47:22;20.00;;;5.13;;
62554;SDS011;48610;52.144;8.624;2023-08-07T06:50:22;9.90;;;4.00;;
62554;SDS011;48610;52.144;8.624;2023-08-07T06:53:24;13.48;;;4.35;;
62554;SDS011;48610;52.144;8.624;2023-08-07T06:56:24;10.30;;;4.63;;
62554;SDS011;48610;52.144;8.624;2023-08-07T06:59:25;14.57;;;3.55;;
62554;SDS011;48610;52.144;8.624;2023-08-07T07:02:25;16.33;;;4.32;;
62554;SDS011;48610;52.144;8.624;2023-08-07T07:05:26;10.52;;;4.10;;
62554;SDS011;48610;52.144;8.624;2023-08-07T07:08:27;16.58;;;4.25;;
62554;SDS011;48610;52.144;8.624;2023-08-07T07:11:28;7.13;;;3.88;;
62554;SDS011;48610;52.144;8.624;2023-08-07T07:14:28;12.90;;;3.83;;
62554;SDS011;48610;52.144;8.624;2023-08-07T07:17:29;9.73;;;4.35;;
62554;SDS011;48610;52.144;8.624;2023-08-07T07:20:29;18.33;;;4.53;;
62554;SDS011;48610;52.144;8.624;2023-08-07T07:23:30;14.13;;;4.35;;
62554;SDS011;48610;52.144;8.624;2023-08-07T07:26:30;11.35;;;4.13;;
62554;SDS011;48610;52.144;8.624;2023-08-07T07:29:31;9.90;;;4.47;;
62554;SDS011;48610;52.144;8.624;2023-08-07T07:32:32;21.92;;;5.45;;
62554;SDS011;48610;52.144;8.624;2023-08-07T07:35:36;13.23;;;5.05;;
62554;SDS011;48610;52.144;8.624;2023-08-07T07:38:38;15.40;;;4.93;;
62554;SDS011;48610;52.144;8.624;2023-08-07T07:41:38;16.02;;;5.47;;
62554;SDS011;48610;52.144;8.624;2023-08-07T07:44:39;23.77;;;4.90;;
62554;SDS011;48610;52.144;8.624;2023-08-07T07:47:40;18.65;;;5.15;;
62554;SDS011;48610;52.144;8.624;2023-08-07T07:50:41;12.40;;;4.53;;
62554;SDS011;48610;52.144;8.624;2023-08-07T07:53:41;14.63;;;4.78;;
62554;SDS011;48610;52.144;8.624;2023-08-07T07:56:42;9.63;;;4.72;;
62554;SDS011;48610;52.144;8.624;2023-08-07T07:59:43;19.90;;;4.68;;
62554;SDS011;48610;52.144;8.624;2023-08-07T08:02:43;18.23;;;5.15;;
62554;SDS011;48610;52.144;8.624;2023-08-07T08:05:44;11.10;;;4.05;;
62554;SDS011;48610;52.144;8.624;2023-08-07T08:08:45;13.45;;;4.97;;
62554;SDS011;48610;52.144;8.624;2023-08-07T08:11:45;15.13;;;4.40;;
62554;SDS011;48610;52.144;8.624;2023-08-07T08:14:46;17.52;;;4.78;;
62554;SDS011;48610;52.144;8.624;2023-08-07T08:17:47;19.10;;;4.93;;
62554;SDS011;48610;52.144;8.624;2023-08-07T08:20:48;14.48;;;4.57;;
62554;SDS011;48610;52.144;8.624;2023-08-07T08:23:49;9.93;;;4.40;;
62554;SDS011;48610;52.144;8.624;2023-08-07T08:26:49;13.43;;;5.65;;
62554;SDS011;48610;52.144;8.624;2023-08-07T08:29:50;12.93;;;4.95;;
62554;SDS011;48610;52.144;8.624;2023-08-07T08:32:50;19.70;;;5.80;;
62554;SDS011;48610;52.144;8.624;2023-08-07T08:35:51;8.73;;;5.35;;
62554;SDS011;48610;52.144;8.624;2023-08-07T08:38:51;18.83;;;5.22;;
62554;SDS011;48610;52.144;8.624;2023-08-07T08:41:52;15.88;;;5.38;;
62554;SDS011;48610;52.144;8.624;2023-08-07T08:44:54;19.45;;;5.45;;
62554;SDS011;48610;52.144;8.624;2023-08-07T08:47:58;16.10;;;5.38;;
62554;SDS011;48610;52.144;8.624;2023-08-07T08:51:02;16.08;;;5.15;;
62554;SDS011;48610;52.144;8.624;2023-08-07T08:54:04;12.93;;;4.40;;
62554;SDS011;48610;52.144;8.624;2023-08-07T08:57:06;19.42;;;4.97;;
62554;SDS011;48610;52.144;8.624;2023-08-07T09:00:08;14.60;;;4.45;;
62554;SDS011;48610;52.144;8.624;2023-08-07T09:03:18;13.82;;;4.57;;
62554;SDS011;48610;52.144;8.624;2023-08-07T09:06:19;20.95;;;5.03;;
62554;SDS011;48610;52.144;8.624;2023-08-07T09:09:20;18.60;;;4.97;;
62554;SDS011;48610;52.144;8.624;2023-08-07T09:12:23;15.50;;;4.45;;
62554;SDS011;48610;52.144;8.624;2023-08-07T09:15:27;13.15;;;4.68;;
62554;SDS011;48610;52.144;8.624;2023-08-07T09:18:30;20.88;;;4.57;;
62554;SDS011;48610;52.144;8.624;2023-08-07T09:21:31;20.45;;;5.28;;
62554;SDS011;48610;52.144;8.624;2023-08-07T09:24:32;14.55;;;3.63;;
62554;SDS011;48610;52.144;8.624;2023-08-07T09:27:32;10.73;;;3.42;;
62554;SDS011;48610;52.144;8.624;2023-08-07T09:30:36;10.63;;;3.30;;
62554;SDS011;48610;52.144;8.624;2023-08-07T09:33:38;12.83;;;3.17;;
62554;SDS011;48610;52.144;8.624;2023-08-07T09:36:39;13.13;;;3.33;;
62554;SDS011;48610;52.144;8.624;2023-08-07T09:39:41;7.07;;;2.78;;
62554;SDS011;48610;52.144;8.624;2023-08-07T09:42:42;21.42;;;3.80;;
62554;SDS011;48610;52.144;8.624;2023-08-07T09:45:42;13.48;;;3.58;;
62554;SDS011;48610;52.144;8.624;2023-08-07T09:48:43;14.27;;;4.15;;
62554;SDS011;48610;52.144;8.624;2023-08-07T09:51:44;15.02;;;3.88;;
62554;SDS011;48610;52.144;8.624;2023-08-07T09:54:46;14.73;;;4.25;;
62554;SDS011;48610;52.144;8.624;2023-08-07T09:57:47;19.92;;;4.07;;
62554;SDS011;48610;52.144;8.624;2023-08-07T10:00:48;13.10;;;4.10;;
62554;SDS011;48610;52.144;8.624;2023-08-07T10:03:49;12.90;;;3.70;;
62554;SDS011;48610;52.144;8.624;2023-08-07T10:06:50;9.60;;;3.90;;
62554;SDS011;48610;52.144;8.624;2023-08-07T10:09:51;14.20;;;4.05;;
62554;SDS011;48610;52.144;8.624;2023-08-07T10:12:52;14.00;;;3.95;;
62554;SDS011;48610;52.144;8.624;2023-08-07T10:15:54;24.92;;;4.50;;
62554;SDS011;48610;52.144;8.624;2023-08-07T10:18:55;15.80;;;4.07;;
62554;SDS011;48610;52.144;8.624;2023-08-07T10:21:56;13.13;;;3.55;;
62554;SDS011;48610;52.144;8.624;2023-08-07T10:24:58;14.35;;;3.20;;
62554;SDS011;48610;52.144;8.624;2023-08-07T10:28:01;12.15;;;4.15;;
62554;SDS011;48610;52.144;8.624;2023-08-07T10:31:04;14.50;;;4.32;;
62554;SDS011;48610;52.144;8.624;2023-08-07T10:34:09;11.80;;;3.60;;
62554;SDS011;48610;52.144;8.624;2023-08-07T10:37:09;10.70;;;3.10;;
62554;SDS011;48610;52.144;8.624;2023-08-07T10:40:59;13.98;;;4.40;;
62554;SDS011;48610;52.144;8.624;2023-08-07T10:44:52;12.77;;;3.03;;
62554;SDS011;48610;52.144;8.624;2023-08-07T10:47:33;9.50;;;3.40;;
62554;SDS011;48610;52.144;8.624;2023-08-07T10:50:35;21.00;;;3.65;;
62554;SDS011;48610;52.144;8.624;2023-08-07T10:53:54;12.60;;;2.70;;
62554;SDS011;48610;52.144;8.624;2023-08-07T10:56:56;17.08;;;3.35;;
62554;SDS011;48610;52.144;8.624;2023-08-07T11:00:03;10.77;;;3.03;;
62554;SDS011;48610;52.144;8.624;2023-08-07T11:03:09;12.05;;;3.33;;
62554;SDS011;48610;52.144;8.624;2023-08-07T11:06:10;6.45;;;2.90;;
62554;SDS011;48610;52.144;8.624;2023-08-07T11:09:11;6.55;;;3.17;;
62554;SDS011;48610;52.144;8.624;2023-08-07T11:12:11;14.23;;;3.40;;
62554;SDS011;48610;52.144;8.624;2023-08-07T11:15:12;13.68;;;3.80;;
62554;SDS011;48610;52.144;8.624;2023-08-07T11:18:14;13.35;;;3.13;;
62554;SDS011;48610;52.144;8.624;2023-08-07T11:21:16;8.88;;;3.60;;
62554;SDS011;48610;52.144;8.624;2023-08-07T11:24:17;8.32;;;3.00;;
62554;SDS011;48610;52.144;8.624;2023-08-07T11:27:23;9.25;;;3.60;;
62554;SDS011;48610;52.144;8.624;2023-08-07T11:30:23;11.43;;;3.67;;
62554;SDS011;48610;52.144;8.624;2023-08-07T11:33:24;23.38;;;4.72;;
62554;SDS011;48610;52.144;8.624;2023-08-07T11:36:26;12.88;;;4.03;;
62554;SDS011;48610;52.144;8.624;2023-08-07T11:39:27;17.50;;;4.18;;
62554;SDS011;48610;52.144;8.624;2023-08-07T11:42:27;18.98;;;4.70;;
62554;SDS011;48610;52.144;8.624;2023-08-07T11:45:29;21.92;;;4.15;;
62554;SDS011;48610;52.144;8.624;2023-08-07T11:48:30;8.52;;;4.30;;
62554;SDS011;48610;52.144;8.624;2023-08-07T11:51:32;14.95;;;4.18;;
62554;SDS011;48610;52.144;8.624;2023-08-07T11:54:32;16.00;;;4.57;;
62554;SDS011;48610;52.144;8.624;2023-08-07T11:57:33;12.80;;;4.30;;
62554;SDS011;48610;52.144;8.624;2023-08-07T12:00:34;18.20;;;4.18;;
62554;SDS011;48610;52.144;8.624;2023-08-07T12:03:35;7.00;;;3.45;;
62554;SDS011;48610;52.144;8.624;2023-08-07T12:06:51;11.82;;;4.25;;
62554;SDS011;48610;52.144;8.624;2023-08-07T12:09:53;16.58;;;4.28;;
62554;SDS011;48610;52.144;8.624;2023-08-07T12:12:58;18.02;;;4.13;;
62554;SDS011;48610;52.144;8.624;2023-08-07T12:16:04;17.98;;;4.18;;
62554;SDS011;48610;52.144;8.624;2023-08-07T12:19:05;17.00;;;4.13;;
62554;SDS011;48610;52.144;8.624;2023-08-07T12:22:06;10.85;;;4.00;;
62554;SDS011;48610;52.144;8.624;2023-08-07T12:25:08;10.57;;;3.75;;
62554;SDS011;48610;52.144;8.624;2023-08-07T12:28:08;16.70;;;3.95;;
62554;SDS011;48610;52.144;8.624;2023-08-07T12:31:09;21.50;;;4.70;;
62554;SDS011;48610;52.144;8.624;2023-08-07T12:34:10;13.25;;;3.60;;
62554;SDS011;48610;52.144;8.624;2023-08-07T12:37:11;14.02;;;4.20;;
62554;SDS011;48610;52.144;8.624;2023-08-07T12:40:11;9.75;;;3.92;;
62554;SDS011;48610;52.144;8.624;2023-08-07T12:43:12;9.77;;;3.72;;
62554;SDS011;48610;52.144;8.624;2023-08-07T12:46:12;13.65;;;3.75;;
62554;SDS011;48610;52.144;8.624;2023-08-07T12:49:13;10.52;;;3.63;;
62554;SDS011;48610;52.144;8.624;2023-08-07T12:52:15;19.48;;;3.97;;
62554;SDS011;48610;52.144;8.624;2023-08-07T12:55:16;10.45;;;3.38;;
62554;SDS011;48610;52.144;8.624;2023-08-07T12:58:16;14.23;;;3.50;;
62554;SDS011;48610;52.144;8.624;2023-08-07T13:01:20;11.05;;;3.47;;
62554;SDS011;48610;52.144;8.624;2023-08-07T13:04:21;6.25;;;3.35;;
62554;SDS011;48610;52.144;8.624;2023-08-07T13:07:21;11.32;;;3.50;;
62554;SDS011;48610;52.144;8.624;2023-08-07T13:10:22;10.60;;;3.25;;
62554;SDS011;48610;52.144;8.624;2023-08-07T13:13:23;13.70;;;3.10;;
62554;SDS011;48610;52.144;8.624;2023-08-07T13:16:23;12.60;;;3.20;;
62554;SDS011;48610;52.144;8.624;2023-08-07T13:19:24;10.80;;;3.20;;
62554;SDS011;48610;52.144;8.624;2023-08-07T13:22:25;10.27;;;3.67;;
62554;SDS011;48610;52.144;8.624;2023-08-07T13:25:26;6.93;;;3.25;;
62554;SDS011;48610;52.144;8.624;2023-08-07T13:28:26;7.47;;;3.17;;
62554;SDS011;48610;52.144;8.624;2023-08-07T13:31:27;13.95;;;3.55;;
62554;SDS011;48610;52.144;8.624;2023-08-07T13:34:27;9.52;;;3.25;;
62554;SDS011;48610;52.144;8.624;2023-08-07T13:37:28;11.32;;;3.75;;
62554;SDS011;48610;52.144;8.624;2023-08-07T13:40:29;10.02;;;3.33;;
62554;SDS011;48610;52.144;8.624;2023-08-07T13:43:29;10.43;;;3.25;;
62554;SDS011;48610;52.144;8.624;2023-08-07T13:46:30;8.25;;;3.25;;
62554;SDS011;48610;52.144;8.624;2023-08-07T13:49:30;7.18;;;3.33;;
62554;SDS011;48610;52.144;8.624;2023-08-07T13:52:31;14.23;;;3.85;;
62554;SDS011;48610;52.144;8.624;2023-08-07T13:55:32;14.13;;;3.40;;
62554;SDS011;48610;52.144;8.624;2023-08-07T13:58:32;12.50;;;3.55;;
62554;SDS011;48610;52.144;8.624;2023-08-07T14:01:33;11.27;;;3.20;;
62554;SDS011;48610;52.144;8.624;2023-08-07T14:04:35;13.30;;;3.33;;
62554;SDS011;48610;52.144;8.624;2023-08-07T14:07:35;14.50;;;3.20;;
62554;SDS011;48610;52.144;8.624;2023-08-07T14:10:36;11.93;;;3.63;;
62554;SDS011;48610;52.144;8.624;2023-08-07T14:13:38;13.18;;;3.17;;
62554;SDS011;48610;52.144;8.624;2023-08-07T14:16:39;9.75;;;2.78;;
62554;SDS011;48610;52.144;8.624;2023-08-07T14:19:40;9.13;;;3.55;;
62554;SDS011;48610;52.144;8.624;2023-08-07T14:22:40;12.32;;;3.28;;
62554;SDS011;48610;52.144;8.624;2023-08-07T14:25:41;10.40;;;3.28;;
62554;SDS011;48610;52.144;8.624;2023-08-07T14:28:43;7.38;;;2.97;;
62554;SDS011;48610;52.144;8.624;2023-08-07T14:31:43;9.10;;;2.97;;
62554;SDS011;48610;52.144;8.624;2023-08-07T14:34:44;10.63;;;3.30;;
62554;SDS011;48610;52.144;8.624;2023-08-07T14:37:46;10.63;;;3.45;;
62554;SDS011;48610;52.144;8.624;2023-08-07T14:40:48;7.85;;;3.58;;
62554;SDS011;48610;52.144;8.624;2023-08-07T14:43:49;10.52;;;3.10;;
62554;SDS011;48610;52.144;8.624;2023-08-07T14:46:49;5.95;;;2.92;;
62554;SDS011;48610;52.144;8.624;2023-08-07T14:49:50;9.52;;;3.10;;
62554;SDS011;48610;52.144;8.624;2023-08-07T14:52:51;6.00;;;2.65;;
62554;SDS011;48610;52.144;8.624;2023-08-07T14:55:51;7.88;;;2.83;;
62554;SDS011;48610;52.144;8.624;2023-08-07T14:58:52;12.38;;;3.30;;
62554;SDS011;48610;52.144;8.624;2023-08-07T15:01:53;4.78;;;2.25;;
62554;SDS011;48610;52.144;8.624;2023-08-07T15:04:53;11.15;;;3.20;;
62554;SDS011;48610;52.144;8.624;2023-08-07T15:07:54;7.10;;;3.00;;
62554;SDS011;48610;52.144;8.624;2023-08-07T15:10:55;4.90;;;2.75;;
62554;SDS011;48610;52.144;8.624;2023-08-07T15:13:55;5.38;;;2.50;;
62554;SDS011;48610;52.144;8.624;2023-08-07T15:16:56;4.78;;;2.67;;
62554;SDS011;48610;52.144;8.624;2023-08-07T15:19:56;8.90;;;2.92;;
62554;SDS011;48610;52.144;8.624;2023-08-07T15:22:57;8.52;;;2.60;;
62554;SDS011;48610;52.144;8.624;2023-08-07T15:25:57;8.68;;;3.00;;
62554;SDS011;48610;52.144;8.624;2023-08-07T15:28:58;11.73;;;3.55;;
62554;SDS011;48610;52.144;8.624;2023-08-07T15:31:59;9.07;;;2.95;;
62554;SDS011;48610;52.144;8.624;2023-08-07T15:34:59;6.93;;;2.92;;
62554;SDS011;48610;52.144;8.624;2023-08-07T15:38:00;13.15;;;4.18;;
62554;SDS011;48610;52.144;8.624;2023-08-07T15:41:01;8.02;;;4.15;;
62554;SDS011;48610;52.144;8.624;2023-08-07T15:44:02;14.40;;;3.72;;
62554;SDS011;48610;52.144;8.624;2023-08-07T15:47:02;7.43;;;3.95;;
62554;SDS011;48610;52.144;8.624;2023-08-07T15:50:04;9.48;;;2.75;;
62554;SDS011;48610;52.144;8.624;2023-08-07T15:53:05;9.13;;;3.55;;
62554;SDS011;48610;52.144;8.624;2023-08-07T15:56:06;9.68;;;3.67;;
62554;SDS011;48610;52.144;8.624;2023-08-07T15:59:07;9.32;;;3.35;;
62554;SDS011;48610;52.144;8.624;2023-08-07T16:02:08;8.10;;;3.17;;
62554;SDS011;48610;52.144;8.624;2023-08-07T16:05:08;4.93;;;3.10;;
62554;SDS011;48610;52.144;8.624;2023-08-07T16:08:09;14.13;;;3.40;;
62554;SDS011;48610;52.144;8.624;2023-08-07T16:11:10;8.00;;;3.72;;
62554;SDS011;48610;52.144;8.624;2023-08-07T16:14:10;17.35;;;3.17;;
62554;SDS011;48610;52.144;8.624;2023-08-07T16:17:11;10.10;;;3.10;;
62554;SDS011;48610;52.144;8.624;2023-08-07T16:20:12;7.40;;;3.17;;
62554;SDS011;48610;52.144;8.624;2023-08-07T16:23:13;7.30;;;3.22;;
62554;SDS011;48610;52.144;8.624;2023-08-07T16:26:13;9.70;;;3.13;;
62554;SDS011;48610;52.144;8.624;2023-08-07T16:29:14;6.85;;;2.90;;
62554;SDS011;48610;52.144;8.624;2023-08-07T16:32:14;6.47;;;3.25;;
62554;SDS011;48610;52.144;8.624;2023-08-07T16:35:15;9.32;;;4.03;;
62554;SDS011;48610;52.144;8.624;2023-08-07T16:38:17;6.70;;;2.92;;
62554;SDS011;48610;52.144;8.624;2023-08-07T16:41:18;11.32;;;3.25;;
62554;SDS011;48610;52.144;8.624;2023-08-07T16:44:19;10.93;;;2.92;;
62554;SDS011;48610;52.144;8.624;2023-08-07T16:47:20;6.97;;;3.10;;
62554;SDS011;48610;52.144;8.624;2023-08-07T16:50:20;9.48;;;3.38;;
62554;SDS011;48610;52.144;8.624;2023-08-07T16:53:21;9.18;;;3.20;;
62554;SDS011;48610;52.144;8.624;2023-08-07T16:56:22;10.88;;;3.30;;
62554;SDS011;48610;52.144;8.624;2023-08-07T16:59:23;16.70;;;3.10;;
62554;SDS011;48610;52.144;8.624;2023-08-07T17:02:24;12.90;;;3.20;;
62554;SDS011;48610;52.144;8.624;2023-08-07T17:05:24;10.63;;;3.38;;
62554;SDS011;48610;52.144;8.624;2023-08-07T17:08:26;9.80;;;3.17;;
62554;SDS011;48610;52.144;8.624;2023-08-07T17:11:26;11.10;;;3.67;;
62554;SDS011;48610;52.144;8.624;2023-08-07T17:14:28;7.55;;;2.92;;
62554;SDS011;48610;52.144;8.624;2023-08-07T17:17:28;10.82;;;2.88;;
62554;SDS011;48610;52.144;8.624;2023-08-07T17:20:29;11.52;;;3.13;;
62554;SDS011;48610;52.144;8.624;2023-08-07T17:23:30;8.10;;;2.95;;
62554;SDS011;48610;52.144;8.624;2023-08-07T17:26:31;5.57;;;3.20;;
62554;SDS011;48610;52.144;8.624;2023-08-07T17:29:32;12.30;;;3.78;;
62554;SDS011;48610;52.144;8.624;2023-08-07T17:32:32;9.93;;;3.08;;
62554;SDS011;48610;52.144;8.624;2023-08-07T17:35:36;9.60;;;3.28;;
62554;SDS011;48610;52.144;8.624;2023-08-07T17:38:37;8.93;;;3.22;;
62554;SDS011;48610;52.144;8.624;2023-08-07T17:41:37;7.22;;;3.33;;
62554;SDS011;48610;52.144;8.624;2023-08-07T17:44:38;9.15;;;3.25;;
62554;SDS011;48610;52.144;8.624;2023-08-07T17:47:39;14.45;;;3.50;;
62554;SDS011;48610;52.144;8.624;2023-08-07T17:50:39;8.48;;;3.53;;
62554;SDS011;48610;52.144;8.624;2023-08-07T17:53:40;7.53;;;3.10;;
62554;SDS011;48610;52.144;8.624;2023-08-07T17:56:41;11.88;;;3.45;;
62554;SDS011;48610;52.144;8.624;2023-08-07T17:59:41;7.47;;;3.22;;
62554;SDS011;48610;52.144;8.624;2023-08-07T18:02:42;7.88;;;3.03;;
62554;SDS011;48610;52.144;8.624;2023-08-07T18:05:43;7.78;;;2.95;;
62554;SDS011;48610;52.144;8.624;2023-08-07T18:08:44;13.00;;;3.60;;